sensor_id;sensor_type;location;lat;lon;timestamp;P1;durP1;ratioP1;P2;durP2;ratioP2
14272;SDS011;7220;49.450;11.052;2022-11-15T00:03:29;10.45;;;8.20;;
14272;SDS011;7220;49.450;11.052;2022-11-15T00:07:29;8.88;;;7.97;;
14272;SDS011;7220;49.450;11.052;2022-11-15T00:11:29;11.50;;;9.15;;
14272;SDS011;7220;49.450;11.052;2022-11-15T00:15:30;13.85;;;9.23;;
14272;SDS011;7220;49.450;11.052;2022-11-15T00:19:30;9.77;;;8.70;;
14272;SDS011;7220;49.450;11.052;2022-11-15T00:23:30;8.82;;;7.60;;
14272;SDS011;7220;49.450;11.052;2022-11-15T00:27:31;8.73;;;7.45;;
14272;SDS011;7220;49.450;11.052;2022-11-15T00:31:31;10.82;;;8.32;;
14272;SDS011;7220;49.450;11.052;2022-11-15T00:35:32;9.50;;;7.55;;
14272;SDS011;7220;49.450;11.052;2022-11-15T00:39:36;9.13;;;7.65;;
14272;SDS011;7220;49.450;11.052;2022-11-15T00:43:36;10.13;;;7.67;;
14272;SDS011;7220;49.450;11.052;2022-11-15T00:47:36;8.48;;;7.68;;
14272;SDS011;7220;49.450;11.052;2022-11-15T00:51:37;10.35;;;8.10;;
14272;SDS011;7220;49.450;11.052;2022-11-15T00:55:37;9.57;;;8.02;;
14272;SDS011;7220;49.450;11.052;2022-11-15T00:59:37;10.60;;;8.63;;
14272;SDS011;7220;49.450;11.052;2022-11-15T01:03:38;10.25;;;8.35;;
14272;SDS011;7220;49.450;11.052;2022-11-15T01:07:39;10.98;;;7.80;;
14272;SDS011;7220;49.450;11.052;2022-11-15T01:11:40;10.70;;;8.32;;
14272;SDS011;7220;49.450;11.052;2022-11-15T01:15:41;10.35;;;8.20;;
14272;SDS011;7220;49.450;11.052;2022-11-15T01:19:41;8.93;;;8.02;;
14272;SDS011;7220;49.450;11.052;2022-11-15T01:23:41;9.13;;;7.78;;
14272;SDS011;7220;49.450;11.052;2022-11-15T01:27:42;8.90;;;8.00;;
14272;SDS011;7220;49.450;11.052;2022-11-15T01:31:42;9.73;;;7.93;;
14272;SDS011;7220;49.450;11.052;2022-11-15T01:35:43;9.18;;;8.27;;
14272;SDS011;7220;49.450;11.052;2022-11-15T01:39:43;8.82;;;7.93;;
14272;SDS011;7220;49.450;11.052;2022-11-15T01:43:43;8.82;;;7.82;;
14272;SDS011;7220;49.450;11.052;2022-11-15T01:47:48;10.02;;;7.43;;
14272;SDS011;7220;49.450;11.052;2022-11-15T01:51:53;9.73;;;8.25;;
14272;SDS011;7220;49.450;11.052;2022-11-15T01:55:55;10.85;;;8.80;;
14272;SDS011;7220;49.450;11.052;2022-11-15T01:59:56;9.45;;;8.45;;
14272;SDS011;7220;49.450;11.052;2022-11-15T02:04:01;8.85;;;7.97;;
14272;SDS011;7220;49.450;11.052;2022-11-15T02:08:07;9.73;;;8.20;;
14272;SDS011;7220;49.450;11.052;2022-11-15T02:12:09;9.25;;;8.30;;
14272;SDS011;7220;49.450;11.052;2022-11-15T02:33:32;9.15;;;7.85;;
14272;SDS011;7220;49.450;11.052;2022-11-15T02:38:08;9.45;;;7.75;;
14272;SDS011;7220;49.450;11.052;2022-11-15T02:42:33;10.10;;;7.53;;
14272;SDS011;7220;49.450;11.052;2022-11-15T02:46:59;10.52;;;7.75;;
14272;SDS011;7220;49.450;11.052;2022-11-15T02:51:14;9.10;;;7.82;;
14272;SDS011;7220;49.450;11.052;2022-11-15T02:55:37;9.10;;;8.20;;
14272;SDS011;7220;49.450;11.052;2022-11-15T03:04:14;8.10;;;7.30;;
14272;SDS011;7220;49.450;11.052;2022-11-15T03:08:41;9.00;;;8.10;;
14272;SDS011;7220;49.450;11.052;2022-11-15T03:17:30;8.35;;;7.47;;
14272;SDS011;7220;49.450;11.052;2022-11-15T03:21:36;8.57;;;7.70;;
14272;SDS011;7220;49.450;11.052;2022-11-15T03:25:43;8.75;;;7.85;;
14272;SDS011;7220;49.450;11.052;2022-11-15T03:29:48;9.40;;;8.38;;
14272;SDS011;7220;49.450;11.052;2022-11-15T03:33:53;9.65;;;8.00;;
14272;SDS011;7220;49.450;11.052;2022-11-15T03:37:59;11.13;;;9.00;;
14272;SDS011;7220;49.450;11.052;2022-11-15T03:42:17;9.45;;;7.95;;
14272;SDS011;7220;49.450;11.052;2022-11-15T03:46:30;9.82;;;8.55;;
14272;SDS011;7220;49.450;11.052;2022-11-15T03:50:32;10.55;;;8.25;;
14272;SDS011;7220;49.450;11.052;2022-11-15T03:54:33;10.38;;;8.02;;
14272;SDS011;7220;49.450;11.052;2022-11-15T03:58:34;8.85;;;8.00;;
14272;SDS011;7220;49.450;11.052;2022-11-15T04:02:34;9.02;;;7.43;;
14272;SDS011;7220;49.450;11.052;2022-11-15T04:06:34;7.80;;;7.00;;
14272;SDS011;7220;49.450;11.052;2022-11-15T04:10:35;8.23;;;7.40;;
14272;SDS011;7220;49.450;11.052;2022-11-15T04:14:35;9.32;;;7.63;;
14272;SDS011;7220;49.450;11.052;2022-11-15T04:18:35;9.27;;;7.87;;
14272;SDS011;7220;49.450;11.052;2022-11-15T04:22:36;11.80;;;7.97;;
14272;SDS011;7220;49.450;11.052;2022-11-15T04:26:55;10.43;;;7.97;;
14272;SDS011;7220;49.450;11.052;2022-11-15T04:30:55;10.25;;;7.55;;
14272;SDS011;7220;49.450;11.052;2022-11-15T04:34:55;9.77;;;7.60;;
14272;SDS011;7220;49.450;11.052;2022-11-15T04:38:56;10.43;;;7.93;;
14272;SDS011;7220;49.450;11.052;2022-11-15T04:42:56;10.45;;;7.55;;
14272;SDS011;7220;49.450;11.052;2022-11-15T04:46:57;9.75;;;8.57;;
14272;SDS011;7220;49.450;11.052;2022-11-15T04:50:58;11.13;;;8.52;;
14272;SDS011;7220;49.450;11.052;2022-11-15T04:54:58;12.20;;;9.15;;
14272;SDS011;7220;49.450;11.052;2022-11-15T04:58:58;9.75;;;7.30;;
14272;SDS011;7220;49.450;11.052;2022-11-15T05:02:58;9.68;;;8.68;;
14272;SDS011;7220;49.450;11.052;2022-11-15T05:07:17;8.70;;;7.35;;
14272;SDS011;7220;49.450;11.052;2022-11-15T05:11:18;9.35;;;7.85;;
14272;SDS011;7220;49.450;11.052;2022-11-15T05:15:18;8.98;;;7.70;;
14272;SDS011;7220;49.450;11.052;2022-11-15T05:19:18;7.97;;;6.78;;
14272;SDS011;7220;49.450;11.052;2022-11-15T05:23:19;8.02;;;7.10;;
14272;SDS011;7220;49.450;11.052;2022-11-15T05:27:19;7.43;;;6.60;;
14272;SDS011;7220;49.450;11.052;2022-11-15T05:31:19;7.72;;;6.80;;
14272;SDS011;7220;49.450;11.052;2022-11-15T05:35:21;8.45;;;6.30;;
14272;SDS011;7220;49.450;11.052;2022-11-15T05:39:46;7.50;;;6.72;;
14272;SDS011;7220;49.450;11.052;2022-11-15T05:43:47;8.57;;;6.38;;
14272;SDS011;7220;49.450;11.052;2022-11-15T05:47:49;8.80;;;6.65;;
14272;SDS011;7220;49.450;11.052;2022-11-15T05:51:51;7.78;;;6.18;;
14272;SDS011;7220;49.450;11.052;2022-11-15T05:55:53;9.30;;;6.55;;
14272;SDS011;7220;49.450;11.052;2022-11-15T05:59:53;8.55;;;6.18;;
14272;SDS011;7220;49.450;11.052;2022-11-15T06:03:54;7.72;;;6.88;;
14272;SDS011;7220;49.450;11.052;2022-11-15T06:07:58;8.20;;;6.65;;
14272;SDS011;7220;49.450;11.052;2022-11-15T06:11:58;7.40;;;5.78;;
14272;SDS011;7220;49.450;11.052;2022-11-15T06:15:59;9.05;;;7.05;;
14272;SDS011;7220;49.450;11.052;2022-11-15T06:19:59;11.70;;;7.90;;
14272;SDS011;7220;49.450;11.052;2022-11-15T06:24:00;10.80;;;7.43;;
14272;SDS011;7220;49.450;11.052;2022-11-15T06:28:00;13.45;;;7.30;;
14272;SDS011;7220;49.450;11.052;2022-11-15T06:32:00;10.45;;;7.40;;
14272;SDS011;7220;49.450;11.052;2022-11-15T06:36:02;13.02;;;7.93;;
14272;SDS011;7220;49.450;11.052;2022-11-15T06:40:07;11.45;;;8.05;;
14272;SDS011;7220;49.450;11.052;2022-11-15T06:44:09;9.98;;;7.78;;
14272;SDS011;7220;49.450;11.052;2022-11-15T06:48:09;11.70;;;7.57;;
14272;SDS011;7220;49.450;11.052;2022-11-15T06:52:09;13.40;;;7.97;;
14272;SDS011;7220;49.450;11.052;2022-11-15T06:56:09;15.57;;;8.63;;
14272;SDS011;7220;49.450;11.052;2022-11-15T07:00:10;10.18;;;8.43;;
14272;SDS011;7220;49.450;11.052;2022-11-15T07:04:10;9.90;;;8.65;;
14272;SDS011;7220;49.450;11.052;2022-11-15T07:08:11;11.85;;;8.90;;
14272;SDS011;7220;49.450;11.052;2022-11-15T07:12:11;13.35;;;9.15;;
14272;SDS011;7220;49.450;11.052;2022-11-15T07:16:11;9.95;;;8.05;;
14272;SDS011;7220;49.450;11.052;2022-11-15T07:20:12;11.07;;;7.50;;
14272;SDS011;7220;49.450;11.052;2022-11-15T07:24:13;10.02;;;7.97;;
14272;SDS011;7220;49.450;11.052;2022-11-15T07:28:13;9.30;;;7.07;;
14272;SDS011;7220;49.450;11.052;2022-11-15T07:32:14;10.73;;;7.40;;
14272;SDS011;7220;49.450;11.052;2022-11-15T07:36:14;10.35;;;7.32;;
14272;SDS011;7220;49.450;11.052;2022-11-15T07:40:14;10.27;;;7.20;;
14272;SDS011;7220;49.450;11.052;2022-11-15T07:44:14;9.48;;;7.15;;
14272;SDS011;7220;49.450;11.052;2022-11-15T07:48:15;10.43;;;7.83;;
14272;SDS011;7220;49.450;11.052;2022-11-15T07:52:15;18.23;;;13.77;;
14272;SDS011;7220;49.450;11.052;2022-11-15T07:56:15;11.23;;;8.85;;
14272;SDS011;7220;49.450;11.052;2022-11-15T08:00:16;10.82;;;8.35;;
14272;SDS011;7220;49.450;11.052;2022-11-15T08:04:17;11.68;;;8.55;;
14272;SDS011;7220;49.450;11.052;2022-11-15T08:08:17;10.18;;;7.90;;
14272;SDS011;7220;49.450;11.052;2022-11-15T08:12:17;13.07;;;7.88;;
14272;SDS011;7220;49.450;11.052;2022-11-15T08:16:18;9.23;;;6.88;;
14272;SDS011;7220;49.450;11.052;2022-11-15T08:20:18;7.10;;;5.88;;
14272;SDS011;7220;49.450;11.052;2022-11-15T08:24:19;7.25;;;6.40;;
14272;SDS011;7220;49.450;11.052;2022-11-15T08:28:20;7.65;;;6.18;;
14272;SDS011;7220;49.450;11.052;2022-11-15T08:32:21;7.35;;;5.13;;
14272;SDS011;7220;49.450;11.052;2022-11-15T08:36:21;5.90;;;5.30;;
14272;SDS011;7220;49.450;11.052;2022-11-15T08:40:21;6.57;;;5.50;;
14272;SDS011;7220;49.450;11.052;2022-11-15T08:44:22;10.27;;;7.82;;
14272;SDS011;7220;49.450;11.052;2022-11-15T08:48:23;8.13;;;5.50;;
14272;SDS011;7220;49.450;11.052;2022-11-15T08:52:24;7.55;;;6.03;;
14272;SDS011;7220;49.450;11.052;2022-11-15T08:56:24;5.93;;;5.22;;
14272;SDS011;7220;49.450;11.052;2022-11-15T09:00:25;6.80;;;4.97;;
14272;SDS011;7220;49.450;11.052;2022-11-15T09:04:25;7.32;;;5.00;;
14272;SDS011;7220;49.450;11.052;2022-11-15T09:08:31;6.65;;;5.13;;
14272;SDS011;7220;49.450;11.052;2022-11-15T09:12:31;8.48;;;5.65;;
14272;SDS011;7220;49.450;11.052;2022-11-15T09:16:32;6.20;;;5.00;;
14272;SDS011;7220;49.450;11.052;2022-11-15T09:20:32;8.25;;;5.13;;
14272;SDS011;7220;49.450;11.052;2022-11-15T09:24:33;5.90;;;4.78;;
14272;SDS011;7220;49.450;11.052;2022-11-15T09:28:35;6.20;;;5.43;;
14272;SDS011;7220;49.450;11.052;2022-11-15T09:32:36;5.43;;;4.93;;
14272;SDS011;7220;49.450;11.052;2022-11-15T09:36:36;7.90;;;5.83;;
14272;SDS011;7220;49.450;11.052;2022-11-15T09:40:37;6.65;;;5.00;;
14272;SDS011;7220;49.450;11.052;2022-11-15T09:44:47;5.95;;;5.30;;
14272;SDS011;7220;49.450;11.052;2022-11-15T09:49:06;6.03;;;5.00;;
14272;SDS011;7220;49.450;11.052;2022-11-15T09:53:11;6.25;;;4.93;;
14272;SDS011;7220;49.450;11.052;2022-11-15T10:05:59;4.53;;;4.10;;
14272;SDS011;7220;49.450;11.052;2022-11-15T10:10:17;7.25;;;5.07;;
14272;SDS011;7220;49.450;11.052;2022-11-15T10:14:26;5.00;;;4.60;;
14272;SDS011;7220;49.450;11.052;2022-11-15T10:18:34;6.60;;;5.20;;
14272;SDS011;7220;49.450;11.052;2022-11-15T10:26:56;6.20;;;4.53;;
14272;SDS011;7220;49.450;11.052;2022-11-15T10:30:58;4.63;;;4.20;;
14272;SDS011;7220;49.450;11.052;2022-11-15T10:35:01;6.65;;;4.40;;
14272;SDS011;7220;49.450;11.052;2022-11-15T10:39:17;5.10;;;4.60;;
14272;SDS011;7220;49.450;11.052;2022-11-15T10:43:17;5.47;;;4.53;;
14272;SDS011;7220;49.450;11.052;2022-11-15T10:47:26;5.28;;;4.45;;
14272;SDS011;7220;49.450;11.052;2022-11-15T10:51:28;5.90;;;4.05;;
14272;SDS011;7220;49.450;11.052;2022-11-15T10:55:30;5.15;;;4.32;;
14272;SDS011;7220;49.450;11.052;2022-11-15T10:59:34;5.32;;;3.85;;
14272;SDS011;7220;49.450;11.052;2022-11-15T11:03:37;6.07;;;4.00;;
14272;SDS011;7220;49.450;11.052;2022-11-15T11:07:43;4.97;;;3.53;;
14272;SDS011;7220;49.450;11.052;2022-11-15T11:11:59;3.88;;;3.08;;
14272;SDS011;7220;49.450;11.052;2022-11-15T11:41:54;4.07;;;2.80;;
14272;SDS011;7220;49.450;11.052;2022-11-15T11:46:05;3.58;;;2.92;;
14272;SDS011;7220;49.450;11.052;2022-11-15T11:50:23;3.38;;;3.05;;
14272;SDS011;7220;49.450;11.052;2022-11-15T11:54:45;5.68;;;2.67;;
14272;SDS011;7220;49.450;11.052;2022-11-15T11:58:53;3.53;;;2.45;;
14272;SDS011;7220;49.450;11.052;2022-11-15T12:07:08;3.03;;;2.42;;
14272;SDS011;7220;49.450;11.052;2022-11-15T12:15:27;3.28;;;2.45;;
14272;SDS011;7220;49.450;11.052;2022-11-15T12:19:31;2.70;;;2.28;;
14272;SDS011;7220;49.450;11.052;2022-11-15T12:23:32;2.75;;;2.45;;
14272;SDS011;7220;49.450;11.052;2022-11-15T12:27:44;4.53;;;2.60;;
14272;SDS011;7220;49.450;11.052;2022-11-15T12:31:51;3.83;;;3.40;;
14272;SDS011;7220;49.450;11.052;2022-11-15T12:35:57;3.58;;;2.40;;
14272;SDS011;7220;49.450;11.052;2022-11-15T12:44:15;3.42;;;2.88;;
14272;SDS011;7220;49.450;11.052;2022-11-15T12:52:36;6.93;;;3.03;;
14272;SDS011;7220;49.450;11.052;2022-11-15T12:56:36;2.85;;;2.65;;
14272;SDS011;7220;49.450;11.052;2022-11-15T13:00:37;3.05;;;2.75;;
14272;SDS011;7220;49.450;11.052;2022-11-15T13:04:37;5.93;;;3.00;;
14272;SDS011;7220;49.450;11.052;2022-11-15T13:08:42;3.67;;;2.87;;
14272;SDS011;7220;49.450;11.052;2022-11-15T13:12:48;5.25;;;3.17;;
14272;SDS011;7220;49.450;11.052;2022-11-15T13:16:56;4.32;;;3.10;;
14272;SDS011;7220;49.450;11.052;2022-11-15T13:20:59;3.92;;;2.75;;
14272;SDS011;7220;49.450;11.052;2022-11-15T13:25:00;5.03;;;2.83;;
14272;SDS011;7220;49.450;11.052;2022-11-15T13:29:01;6.15;;;3.33;;
14272;SDS011;7220;49.450;11.052;2022-11-15T13:33:08;4.72;;;2.70;;
14272;SDS011;7220;49.450;11.052;2022-11-15T13:41:22;5.32;;;3.22;;
14272;SDS011;7220;49.450;11.052;2022-11-15T13:45:24;8.00;;;3.22;;
14272;SDS011;7220;49.450;11.052;2022-11-15T13:49:30;7.22;;;3.15;;
14272;SDS011;7220;49.450;11.052;2022-11-15T13:53:32;6.85;;;3.15;;
14272;SDS011;7220;49.450;11.052;2022-11-15T13:57:39;6.65;;;3.03;;
14272;SDS011;7220;49.450;11.052;2022-11-15T14:01:44;7.88;;;3.15;;
14272;SDS011;7220;49.450;11.052;2022-11-15T14:06:07;3.35;;;2.75;;
14272;SDS011;7220;49.450;11.052;2022-11-15T14:10:30;5.22;;;3.33;;
14272;SDS011;7220;49.450;11.052;2022-11-15T14:14:36;3.13;;;2.80;;
14272;SDS011;7220;49.450;11.052;2022-11-15T14:18:49;4.57;;;2.85;;
14272;SDS011;7220;49.450;11.052;2022-11-15T14:22:55;4.63;;;3.75;;
14272;SDS011;7220;49.450;11.052;2022-11-15T14:26:56;4.57;;;3.50;;
14272;SDS011;7220;49.450;11.052;2022-11-15T14:30:57;4.22;;;3.38;;
14272;SDS011;7220;49.450;11.052;2022-11-15T14:35:01;5.80;;;3.75;;
14272;SDS011;7220;49.450;11.052;2022-11-15T14:39:02;3.92;;;3.55;;
14272;SDS011;7220;49.450;11.052;2022-11-15T14:43:07;5.53;;;3.78;;
14272;SDS011;7220;49.450;11.052;2022-11-15T14:47:08;3.65;;;3.35;;
14272;SDS011;7220;49.450;11.052;2022-11-15T14:51:12;5.30;;;4.00;;
14272;SDS011;7220;49.450;11.052;2022-11-15T14:59:20;4.60;;;3.85;;
14272;SDS011;7220;49.450;11.052;2022-11-15T15:03:22;6.97;;;4.38;;
14272;SDS011;7220;49.450;11.052;2022-11-15T15:07:23;4.63;;;3.80;;
14272;SDS011;7220;49.450;11.052;2022-11-15T15:11:24;5.13;;;3.97;;
14272;SDS011;7220;49.450;11.052;2022-11-15T15:15:32;4.95;;;4.45;;
14272;SDS011;7220;49.450;11.052;2022-11-15T15:19:34;5.95;;;4.72;;
14272;SDS011;7220;49.450;11.052;2022-11-15T15:23:35;6.90;;;5.27;;
14272;SDS011;7220;49.450;11.052;2022-11-15T15:27:35;10.85;;;6.15;;
14272;SDS011;7220;49.450;11.052;2022-11-15T15:31:35;7.93;;;5.10;;
14272;SDS011;7220;49.450;11.052;2022-11-15T15:35:36;10.13;;;4.73;;
14272;SDS011;7220;49.450;11.052;2022-11-15T15:39:36;8.77;;;5.22;;
14272;SDS011;7220;49.450;11.052;2022-11-15T15:43:36;6.83;;;5.37;;
14272;SDS011;7220;49.450;11.052;2022-11-15T15:47:37;8.35;;;4.82;;
14272;SDS011;7220;49.450;11.052;2022-11-15T15:51:38;7.47;;;5.75;;
14272;SDS011;7220;49.450;11.052;2022-11-15T15:55:38;6.67;;;5.40;;
14272;SDS011;7220;49.450;11.052;2022-11-15T15:59:39;6.25;;;4.97;;
14272;SDS011;7220;49.450;11.052;2022-11-15T16:03:40;8.35;;;5.53;;
14272;SDS011;7220;49.450;11.052;2022-11-15T16:07:40;8.43;;;5.60;;
14272;SDS011;7220;49.450;11.052;2022-11-15T16:11:46;8.52;;;6.15;;
14272;SDS011;7220;49.450;11.052;2022-11-15T16:15:47;9.90;;;6.32;;
14272;SDS011;7220;49.450;11.052;2022-11-15T16:19:52;10.98;;;6.60;;
14272;SDS011;7220;49.450;11.052;2022-11-15T16:23:52;9.00;;;6.47;;
14272;SDS011;7220;49.450;11.052;2022-11-15T16:27:53;7.18;;;5.95;;
14272;SDS011;7220;49.450;11.052;2022-11-15T16:31:53;7.33;;;6.30;;
14272;SDS011;7220;49.450;11.052;2022-11-15T16:35:54;12.55;;;6.75;;
14272;SDS011;7220;49.450;11.052;2022-11-15T16:39:54;11.13;;;8.88;;
14272;SDS011;7220;49.450;11.052;2022-11-15T16:43:54;12.07;;;8.38;;
14272;SDS011;7220;49.450;11.052;2022-11-15T16:47:55;14.27;;;9.93;;
14272;SDS011;7220;49.450;11.052;2022-11-15T16:51:55;12.55;;;9.70;;
14272;SDS011;7220;49.450;11.052;2022-11-15T16:55:56;15.95;;;10.95;;
14272;SDS011;7220;49.450;11.052;2022-11-15T16:59:56;15.27;;;10.65;;
14272;SDS011;7220;49.450;11.052;2022-11-15T17:03:57;15.80;;;11.03;;
14272;SDS011;7220;49.450;11.052;2022-11-15T17:07:58;15.18;;;10.50;;
14272;SDS011;7220;49.450;11.052;2022-11-15T17:11:58;14.82;;;9.88;;
14272;SDS011;7220;49.450;11.052;2022-11-15T17:16:02;16.40;;;10.55;;
14272;SDS011;7220;49.450;11.052;2022-11-15T17:20:04;13.88;;;10.10;;
14272;SDS011;7220;49.450;11.052;2022-11-15T17:24:08;15.65;;;9.93;;
14272;SDS011;7220;49.450;11.052;2022-11-15T17:28:09;11.00;;;9.05;;
14272;SDS011;7220;49.450;11.052;2022-11-15T17:32:09;12.38;;;9.15;;
14272;SDS011;7220;49.450;11.052;2022-11-15T17:36:10;10.82;;;8.38;;
14272;SDS011;7220;49.450;11.052;2022-11-15T17:40:11;10.57;;;7.75;;
14272;SDS011;7220;49.450;11.052;2022-11-15T17:44:11;11.77;;;8.80;;
14272;SDS011;7220;49.450;11.052;2022-11-15T17:48:12;14.82;;;10.02;;
14272;SDS011;7220;49.450;11.052;2022-11-15T17:52:12;14.18;;;9.18;;
14272;SDS011;7220;49.450;11.052;2022-11-15T17:56:14;13.37;;;9.90;;
14272;SDS011;7220;49.450;11.052;2022-11-15T18:00:19;14.70;;;11.48;;
14272;SDS011;7220;49.450;11.052;2022-11-15T18:04:20;15.88;;;11.80;;
14272;SDS011;7220;49.450;11.052;2022-11-15T18:08:22;15.77;;;10.73;;
14272;SDS011;7220;49.450;11.052;2022-11-15T18:12:22;16.40;;;11.32;;
14272;SDS011;7220;49.450;11.052;2022-11-15T18:16:24;15.93;;;11.40;;
14272;SDS011;7220;49.450;11.052;2022-11-15T18:20:25;21.20;;;14.18;;
14272;SDS011;7220;49.450;11.052;2022-11-15T18:24:32;15.70;;;11.25;;
14272;SDS011;7220;49.450;11.052;2022-11-15T18:28:35;16.98;;;11.05;;
14272;SDS011;7220;49.450;11.052;2022-11-15T18:32:36;15.52;;;11.48;;
14272;SDS011;7220;49.450;11.052;2022-11-15T18:36:37;14.52;;;12.25;;
14272;SDS011;7220;49.450;11.052;2022-11-15T18:40:38;16.55;;;12.85;;
14272;SDS011;7220;49.450;11.052;2022-11-15T18:44:38;14.52;;;12.52;;
14272;SDS011;7220;49.450;11.052;2022-11-15T18:48:40;15.75;;;12.50;;
14272;SDS011;7220;49.450;11.052;2022-11-15T18:52:41;17.40;;;11.38;;
14272;SDS011;7220;49.450;11.052;2022-11-15T18:56:41;12.18;;;10.88;;
14272;SDS011;7220;49.450;11.052;2022-11-15T19:00:43;14.80;;;11.45;;
14272;SDS011;7220;49.450;11.052;2022-11-15T19:04:43;16.45;;;12.38;;
14272;SDS011;7220;49.450;11.052;2022-11-15T19:08:44;18.67;;;14.32;;
14272;SDS011;7220;49.450;11.052;2022-11-15T19:12:46;15.65;;;13.07;;
14272;SDS011;7220;49.450;11.052;2022-11-15T19:16:48;26.63;;;22.30;;
14272;SDS011;7220;49.450;11.052;2022-11-15T19:20:49;16.58;;;13.23;;
14272;SDS011;7220;49.450;11.052;2022-11-15T19:24:49;9.88;;;8.73;;
14272;SDS011;7220;49.450;11.052;2022-11-15T19:28:50;10.75;;;8.82;;
14272;SDS011;7220;49.450;11.052;2022-11-15T19:32:53;14.48;;;10.15;;
14272;SDS011;7220;49.450;11.052;2022-11-15T19:36:53;13.48;;;9.85;;
14272;SDS011;7220;49.450;11.052;2022-11-15T19:40:57;10.55;;;9.13;;
14272;SDS011;7220;49.450;11.052;2022-11-15T19:45:02;11.13;;;9.40;;
14272;SDS011;7220;49.450;11.052;2022-11-15T19:49:02;15.90;;;10.25;;
14272;SDS011;7220;49.450;11.052;2022-11-15T19:53:03;13.30;;;10.45;;
14272;SDS011;7220;49.450;11.052;2022-11-15T19:57:03;13.43;;;11.27;;
14272;SDS011;7220;49.450;11.052;2022-11-15T20:01:05;17.65;;;10.77;;
14272;SDS011;7220;49.450;11.052;2022-11-15T20:05:07;17.42;;;12.50;;
14272;SDS011;7220;49.450;11.052;2022-11-15T20:09:11;15.13;;;12.60;;
14272;SDS011;7220;49.450;11.052;2022-11-15T20:13:13;15.55;;;11.77;;
14272;SDS011;7220;49.450;11.052;2022-11-15T20:17:13;13.77;;;11.48;;
14272;SDS011;7220;49.450;11.052;2022-11-15T20:21:14;14.82;;;10.82;;
14272;SDS011;7220;49.450;11.052;2022-11-15T20:25:14;15.07;;;11.77;;
14272;SDS011;7220;49.450;11.052;2022-11-15T20:29:14;14.68;;;10.80;;
14272;SDS011;7220;49.450;11.052;2022-11-15T20:33:15;13.77;;;10.55;;
14272;SDS011;7220;49.450;11.052;2022-11-15T20:37:16;12.50;;;9.73;;
14272;SDS011;7220;49.450;11.052;2022-11-15T20:41:18;13.60;;;10.85;;
14272;SDS011;7220;49.450;11.052;2022-11-15T20:45:19;14.87;;;11.57;;
14272;SDS011;7220;49.450;11.052;2022-11-15T20:49:19;13.88;;;12.15;;
14272;SDS011;7220;49.450;11.052;2022-11-15T20:53:20;12.13;;;10.90;;
14272;SDS011;7220;49.450;11.052;2022-11-15T20:57:20;13.48;;;10.73;;
14272;SDS011;7220;49.450;11.052;2022-11-15T21:01:21;11.52;;;10.27;;
14272;SDS011;7220;49.450;11.052;2022-11-15T21:05:23;12.90;;;9.75;;
14272;SDS011;7220;49.450;11.052;2022-11-15T21:09:23;16.70;;;11.68;;
14272;SDS011;7220;49.450;11.052;2022-11-15T21:13:42;14.68;;;11.05;;
14272;SDS011;7220;49.450;11.052;2022-11-15T21:17:42;14.82;;;11.18;;
14272;SDS011;7220;49.450;11.052;2022-11-15T21:21:43;13.68;;;10.10;;
14272;SDS011;7220;49.450;11.052;2022-11-15T21:25:50;13.82;;;10.85;;
14272;SDS011;7220;49.450;11.052;2022-11-15T21:29:51;12.95;;;10.02;;
14272;SDS011;7220;49.450;11.052;2022-11-15T21:33:51;12.95;;;11.27;;
14272;SDS011;7220;49.450;11.052;2022-11-15T21:37:51;11.45;;;10.10;;
14272;SDS011;7220;49.450;11.052;2022-11-15T21:41:52;16.95;;;12.30;;
14272;SDS011;7220;49.450;11.052;2022-11-15T21:45:56;17.08;;;11.93;;
14272;SDS011;7220;49.450;11.052;2022-11-15T21:50:03;13.38;;;11.38;;
14272;SDS011;7220;49.450;11.052;2022-11-15T21:54:04;14.43;;;10.82;;
14272;SDS011;7220;49.450;11.052;2022-11-15T21:58:04;13.93;;;11.13;;
14272;SDS011;7220;49.450;11.052;2022-11-15T22:02:04;13.87;;;10.60;;
14272;SDS011;7220;49.450;11.052;2022-11-15T22:06:14;13.07;;;11.30;;
14272;SDS011;7220;49.450;11.052;2022-11-15T22:10:15;14.85;;;11.73;;
14272;SDS011;7220;49.450;11.052;2022-11-15T22:14:16;14.80;;;12.02;;
14272;SDS011;7220;49.450;11.052;2022-11-15T22:18:16;17.02;;;12.07;;
14272;SDS011;7220;49.450;11.052;2022-11-15T22:22:17;12.48;;;10.90;;
14272;SDS011;7220;49.450;11.052;2022-11-15T22:26:18;15.20;;;12.10;;
14272;SDS011;7220;49.450;11.052;2022-11-15T22:30:19;15.25;;;11.10;;
14272;SDS011;7220;49.450;11.052;2022-11-15T22:34:20;17.48;;;12.65;;
14272;SDS011;7220;49.450;11.052;2022-11-15T22:38:21;15.13;;;12.32;;
14272;SDS011;7220;49.450;11.052;2022-11-15T22:42:21;14.88;;;12.10;;
14272;SDS011;7220;49.450;11.052;2022-11-15T22:46:21;17.10;;;11.43;;
14272;SDS011;7220;49.450;11.052;2022-11-15T22:50:22;13.75;;;11.38;;
14272;SDS011;7220;49.450;11.052;2022-11-15T22:54:22;16.92;;;11.18;;
14272;SDS011;7220;49.450;11.052;2022-11-15T22:58:23;13.40;;;9.70;;
14272;SDS011;7220;49.450;11.052;2022-11-15T23:02:25;12.00;;;10.00;;
14272;SDS011;7220;49.450;11.052;2022-11-15T23:06:26;11.48;;;9.68;;
14272;SDS011;7220;49.450;11.052;2022-11-15T23:10:26;12.40;;;9.73;;
14272;SDS011;7220;49.450;11.052;2022-11-15T23:14:45;9.77;;;8.30;;
14272;SDS011;7220;49.450;11.052;2022-11-15T23:18:45;11.95;;;9.45;;
14272;SDS011;7220;49.450;11.052;2022-11-15T23:22:46;11.50;;;8.82;;
14272;SDS011;7220;49.450;11.052;2022-11-15T23:26:47;11.30;;;9.63;;
14272;SDS011;7220;49.450;11.052;2022-11-15T23:30:48;12.00;;;9.90;;
14272;SDS011;7220;49.450;11.052;2022-11-15T23:35:07;11.13;;;9.68;;
14272;SDS011;7220;49.450;11.052;2022-11-15T23:39:08;12.77;;;9.52;;
14272;SDS011;7220;49.450;11.052;2022-11-15T23:43:09;12.27;;;10.13;;
14272;SDS011;7220;49.450;11.052;2022-11-15T23:47:09;13.20;;;10.45;;
14272;SDS011;7220;49.450;11.052;2022-11-15T23:51:09;12.20;;;10.27;;
14272;SDS011;7220;49.450;11.052;2022-11-15T23:55:10;15.18;;;10.95;;
14272;SDS011;7220;49.450;11.052;2022-11-15T23:59:10;14.40;;;10.75;;
